createdAt,value
2019-06-01T00:01:17.690Z,100619.64
2019-06-01T00:03:46.497Z,100621.39
2019-06-01T00:06:14.170Z,100615.44
2019-06-01T00:08:44.993Z,100617.41
2019-06-01T00:11:15.726Z,100612.17
2019-06-01T00:13:47.692Z,100614.67
2019-06-01T00:16:15.346Z,100614.67
2019-06-01T00:18:43.995Z,100617.75
2019-06-01T00:21:14.824Z,100619.61
2019-06-01T00:23:44.943Z,100609.20
2019-06-01T00:26:14.671Z,100616.42
2019-06-01T00:28:47.895Z,100614.27
2019-06-01T00:31:16.777Z,100612.60
2019-06-01T00:33:47.320Z,100608.73
2019-06-01T00:36:21.254Z,100607.05
2019-06-01T00:38:52.052Z,100604.41
2019-06-01T00:41:22.488Z,100608.09
2019-06-01T00:43:50.579Z,100610.06
2019-06-01T00:46:19.474Z,100608.45
2019-06-01T00:48:48.173Z,100605.69
2019-06-01T00:51:21.489Z,100605.69
2019-06-01T00:53:51.894Z,100609.47
2019-06-01T00:56:19.986Z,100606.93
2019-06-01T00:58:47.887Z,100603.03
2019-06-01T01:01:15.850Z,100603.03
2019-06-01T01:03:43.961Z,100611.69
2019-06-01T01:06:11.800Z,100610.11
2019-06-01T01:08:39.396Z,100607.58
2019-06-01T01:11:08.893Z,100613.52
2019-06-01T01:13:38.491Z,100613.31
2019-06-01T01:16:05.980Z,100613.08
2019-06-01T01:18:33.611Z,100613.93
2019-06-01T01:21:01.624Z,100614.55
2019-06-01T01:23:29.579Z,100614.55
2019-06-01T01:25:58.583Z,100608.24
2019-06-01T01:28:29.254Z,100608.24
2019-06-01T01:31:11.703Z,100612.99
2019-06-01T01:33:27.855Z,100625.41
2019-06-01T01:35:55.823Z,100624.30
2019-06-01T01:38:27.354Z,100624.30
2019-06-01T01:40:56.169Z,100623.34
2019-06-01T01:43:23.901Z,100612.15
2019-06-01T01:45:52.739Z,100612.15
2019-06-01T01:48:20.357Z,100614.83
2019-06-01T01:50:47.913Z,100612.54
2019-06-01T01:53:15.642Z,100604.98
2019-06-01T01:55:43.723Z,100608.64
2019-06-01T01:58:11.591Z,100604.38
2019-06-01T02:00:39.769Z,100603.67
2019-06-01T02:03:07.364Z,100601.61
2019-06-01T02:05:35.474Z,100599.52
2019-06-01T02:08:03.270Z,100597.72
2019-06-01T02:10:30.927Z,100590.91
2019-06-01T02:12:59.633Z,100592.14
2019-06-01T02:15:30.675Z,100598.21
2019-06-01T02:17:58.295Z,100590.66
2019-06-01T02:20:26.269Z,100590.80
2019-06-01T02:22:54.703Z,100593.95
2019-06-01T02:25:22.851Z,100593.09
2019-06-01T02:27:50.629Z,100598.08
2019-06-01T02:30:18.384Z,100598.45
2019-06-01T02:32:46.248Z,100598.45
2019-06-01T02:35:14.518Z,100597.84
2019-06-01T02:37:42.382Z,100598.94
2019-06-01T02:40:10.183Z,100594.81
2019-06-01T02:42:38.525Z,100594.81
2019-06-01T02:45:06.398Z,100593.95
2019-06-01T02:47:34.150Z,100595.91
2019-06-01T02:50:04.254Z,100590.81
2019-06-01T02:52:32.154Z,100590.81
2019-06-01T02:54:59.962Z,100595.20
2019-06-01T02:57:30.855Z,100595.20
2019-06-01T02:59:58.718Z,100595.30
2019-06-01T03:02:26.995Z,100590.80
2019-06-01T03:04:54.864Z,100597.34
2019-06-01T03:07:22.734Z,100596.84
2019-06-01T03:09:50.584Z,100599.77
2019-06-01T03:12:18.874Z,100596.84
2019-06-01T03:14:46.734Z,100594.28
2019-06-01T03:17:14.599Z,100599.16
2019-06-01T03:19:42.325Z,100592.69
2019-06-01T03:22:10.386Z,100592.69
2019-06-01T03:24:38.251Z,100585.42
2019-06-01T03:27:06.580Z,100594.78
2019-06-01T03:29:34.371Z,100594.03
2019-06-01T03:32:23.940Z,100591.97
2019-06-01T03:34:32.117Z,100598.29
2019-06-01T03:37:00.986Z,100597.56
2019-06-01T03:39:29.326Z,100597.56
2019-06-01T03:41:57.151Z,100597.06
2019-06-01T03:44:25.028Z,100597.06
2019-06-01T03:46:53.301Z,100598.91
2019-06-01T03:49:23.226Z,100593.56
2019-06-01T03:51:51.179Z,100593.56
2019-06-01T03:54:19.560Z,100597.67
2019-06-01T03:56:47.431Z,100597.67
2019-06-01T03:59:15.186Z,100598.80
2019-06-01T04:01:43.062Z,100592.83
2019-06-01T04:04:11.544Z,100587.98
2019-06-01T04:06:48.372Z,100584.00
2019-06-01T04:09:16.130Z,100587.62
2019-06-01T04:11:45.987Z,100587.62
2019-06-01T04:14:13.854Z,100592.36
2019-06-01T04:16:44.713Z,100592.36
2019-06-01T04:19:14.411Z,100594.67
2019-06-01T04:21:42.278Z,100586.02
2019-06-01T04:24:10.268Z,100582.58
2019-06-01T04:26:38.628Z,100580.52
2019-06-01T04:29:06.624Z,100585.47
2019-06-01T04:31:34.346Z,100587.71
2019-06-01T04:34:02.488Z,100587.71
2019-06-01T04:36:30.779Z,100591.40
2019-06-01T04:38:59.655Z,100591.40
2019-06-01T04:41:27.380Z,100594.79
2019-06-01T04:43:55.147Z,100595.14
2019-06-01T04:46:23.300Z,100593.49
2019-06-01T04:48:51.089Z,100601.25
2019-06-01T04:51:18.946Z,100602.52
2019-06-01T04:53:46.796Z,100607.38
2019-06-01T04:56:15.317Z,100607.38
2019-06-01T04:58:43.253Z,100605.06
2019-06-01T05:01:11.001Z,100607.85
2019-06-01T05:03:38.873Z,100600.03
2019-06-01T05:06:07.278Z,100600.03
2019-06-01T05:08:35.013Z,100598.44
2019-06-01T05:11:05.228Z,100597.47
2019-06-01T05:13:32.903Z,100599.32
2019-06-01T05:16:00.619Z,100594.45
2019-06-01T05:18:28.949Z,100586.98
2019-06-01T05:20:56.813Z,100586.98
2019-06-01T05:23:27.620Z,100587.38
2019-06-01T05:25:56.194Z,100584.92
2019-06-01T05:28:26.145Z,100584.92
2019-06-01T05:30:57.288Z,100585.14
2019-06-01T05:33:36.985Z,100579.50
2019-06-01T05:35:54.670Z,100577.41
2019-06-01T05:38:22.971Z,100568.52
2019-06-01T05:40:52.002Z,100568.52
2019-06-01T05:43:21.308Z,100558.54
2019-06-01T05:45:52.363Z,100563.16
2019-06-01T05:48:25.082Z,100563.16
2019-06-01T05:50:49.558Z,100558.78
2019-06-01T05:53:19.763Z,100558.78
2019-06-01T05:55:47.691Z,100564.47
2019-06-01T05:58:17.121Z,100556.07
2019-06-01T06:00:45.098Z,100564.53
2019-06-01T06:03:16.215Z,100565.42
2019-06-01T06:05:43.792Z,100556.98
2019-06-01T06:08:12.725Z,100547.19
2019-06-01T06:10:42.839Z,100552.54
2019-06-01T06:13:11.135Z,100547.48
2019-06-01T06:15:41.182Z,100550.78
2019-06-01T06:18:09.350Z,100545.00
2019-06-01T06:20:37.101Z,100541.16
2019-06-01T06:23:07.296Z,100541.16
2019-06-01T06:25:38.302Z,100540.92
2019-06-01T06:28:05.346Z,100535.22
2019-06-01T06:30:33.141Z,100542.36
2019-06-01T06:33:06.185Z,100540.41
2019-06-01T06:38:09.658Z,100539.58
2019-06-01T06:40:37.380Z,100541.95
2019-06-01T06:43:18.639Z,100552.34
2019-06-01T06:45:34.979Z,100552.34
2019-06-01T06:48:07.369Z,100554.38
2019-06-01T06:50:39.532Z,100556.91
2019-06-01T06:53:06.299Z,100553.83
2019-06-01T06:55:35.403Z,100553.83
2019-06-01T06:58:03.660Z,100550.75
2019-06-01T07:00:31.712Z,100551.78
2019-06-01T07:03:01.845Z,100551.25
2019-06-01T07:05:31.805Z,100551.25
2019-06-01T07:07:59.806Z,100552.05
2019-06-01T07:10:28.332Z,100554.19
2019-06-01T07:12:56.137Z,100549.39
2019-06-01T07:15:25.447Z,100552.55
2019-06-01T07:17:53.240Z,100553.03
2019-06-01T07:20:21.528Z,100554.34
2019-06-01T07:22:49.690Z,100556.18
2019-06-01T07:25:17.567Z,100550.21
2019-06-01T07:27:45.260Z,100551.53
2019-06-01T07:30:14.579Z,100551.89
2019-06-01T07:32:42.344Z,100555.91
2019-06-01T07:35:10.088Z,100555.20
2019-06-01T07:37:40.971Z,100560.94
2019-06-01T07:40:13.164Z,100552.09
2019-06-01T07:42:38.365Z,100552.69
2019-06-01T07:45:07.712Z,100555.19
2019-06-01T07:47:36.716Z,100550.22
2019-06-01T07:50:05.529Z,100553.22
2019-06-01T07:52:36.792Z,100548.25
2019-06-01T07:55:04.494Z,100554.11
2019-06-01T07:57:32.269Z,100554.41
2019-06-01T08:00:01.815Z,100548.91
2019-06-01T08:02:30.766Z,100540.99
2019-06-01T08:05:00.338Z,100540.99
2019-06-01T08:07:29.242Z,100542.35
2019-06-01T08:09:57.138Z,100535.47
2019-06-01T08:12:29.874Z,100535.47
2019-06-01T08:14:58.060Z,100536.00
2019-06-01T08:17:26.089Z,100539.52
2019-06-01T08:19:56.873Z,100539.52
2019-06-01T08:22:25.970Z,100538.45
2019-06-01T08:24:53.802Z,100533.77
2019-06-01T08:27:22.420Z,100535.00
2019-06-01T08:29:55.929Z,100527.91
2019-06-01T08:32:24.534Z,100528.63
2019-06-01T08:35:07.109Z,100525.12
2019-06-01T08:37:23.522Z,100524.68
2019-06-01T08:39:53.528Z,100525.84
2019-06-01T08:42:21.299Z,100527.00
2019-06-01T08:44:49.519Z,100528.31
2019-06-01T08:47:17.301Z,100523.56
2019-06-01T08:49:47.392Z,100521.83
2019-06-01T08:52:17.584Z,100522.59
2019-06-01T08:54:45.321Z,100522.59
2019-06-01T08:57:14.213Z,100519.50
2019-06-01T08:59:43.299Z,100519.02
2019-06-01T09:02:11.111Z,100520.35
2019-06-01T09:04:38.983Z,100519.47
2019-06-01T09:07:07.195Z,100517.50
2019-06-01T09:09:35.216Z,100517.50
2019-06-01T09:12:05.370Z,100523.69
2019-06-01T09:14:35.635Z,100517.28
2019-06-01T09:17:03.451Z,100514.27
2019-06-01T09:19:34.223Z,100513.82
2019-06-01T09:22:07.507Z,100506.67
2019-06-01T09:24:37.954Z,100506.67
2019-06-01T09:27:08.581Z,100508.41
2019-06-01T09:29:44.791Z,100511.44
2019-06-01T09:34:52.520Z,100508.48
2019-06-01T09:37:23.180Z,100508.17
2019-06-01T09:39:50.889Z,100510.83
2019-06-01T09:42:18.690Z,100506.06
2019-06-01T09:44:46.825Z,100511.83
2019-06-01T09:47:14.965Z,100507.92
2019-06-01T09:49:42.684Z,100510.26
2019-06-01T09:52:12.453Z,100510.26
2019-06-01T09:54:40.277Z,100506.16
2019-06-01T09:57:10.395Z,100503.13
2019-06-01T09:59:38.267Z,100499.13
2019-06-01T10:02:06.399Z,100498.01
2019-06-01T10:04:34.457Z,100498.23
2019-06-01T10:07:10.291Z,100495.40
2019-06-01T10:09:38.366Z,100492.19
2019-06-01T10:12:06.189Z,100494.84
2019-06-01T10:14:39.395Z,100492.52
2019-06-01T10:17:10.428Z,100490.36
2019-06-01T10:19:38.876Z,100484.55
2019-06-01T10:22:11.166Z,100490.48
2019-06-01T10:24:42.188Z,100486.09
2019-06-01T10:27:12.011Z,100472.13
2019-06-01T10:29:40.128Z,100472.13
2019-06-01T10:32:16.745Z,100482.92
2019-06-01T10:34:44.856Z,100474.02
2019-06-01T10:37:12.921Z,100474.02
2019-06-01T10:39:41.413Z,100476.97
2019-06-01T10:42:09.190Z,100476.97
2019-06-01T10:44:41.775Z,100471.21
2019-06-01T10:47:08.574Z,100464.39
2019-06-01T10:49:38.525Z,100461.63
2019-06-01T10:52:07.012Z,100463.41
2019-06-01T10:54:36.030Z,100465.13
2019-06-01T10:57:03.847Z,100466.00
2019-06-01T10:59:32.252Z,100464.73
2019-06-01T11:02:00.035Z,100456.98
2019-06-01T11:04:27.840Z,100458.92
2019-06-01T11:06:55.940Z,100458.38
2019-06-01T11:09:23.790Z,100460.61
2019-06-01T11:11:51.588Z,100452.68
2019-06-01T11:14:19.783Z,100452.81
2019-06-01T11:16:52.698Z,100454.73
2019-06-01T11:19:19.802Z,100446.56
2019-06-01T11:22:06.581Z,100439.88
2019-06-01T11:24:37.188Z,100435.91
2019-06-01T11:27:07.412Z,100436.13
2019-06-01T11:29:41.185Z,100435.78
2019-06-01T11:32:04.648Z,100439.88
2019-06-01T11:34:33.896Z,100433.83
2019-06-01T11:37:05.471Z,100438.63
2019-06-01T11:39:31.181Z,100437.00
2019-06-01T11:41:59.359Z,100431.72
2019-06-01T11:44:27.164Z,100431.61
2019-06-01T11:46:55.022Z,100429.94
2019-06-01T11:49:25.907Z,100428.10
2019-06-01T11:51:56.135Z,100428.02
2019-06-01T11:54:27.201Z,100421.16
2019-06-01T11:56:56.889Z,100415.42
2019-06-01T11:59:24.638Z,100422.11
2019-06-01T12:01:55.373Z,100413.30
2019-06-01T12:04:25.180Z,100409.25
2019-06-01T12:07:13.483Z,100403.81
2019-06-01T12:09:25.250Z,100403.63
2019-06-01T12:11:57.799Z,100405.82
2019-06-01T12:14:25.589Z,100410.98
2019-06-01T12:16:53.380Z,100403.75
2019-06-01T12:19:21.478Z,100403.74
2019-06-01T12:21:49.230Z,100399.59
2019-06-01T12:24:18.373Z,100396.89
2019-06-01T12:26:47.507Z,100394.23
2019-06-01T12:29:17.372Z,100393.72
2019-06-01T12:31:46.534Z,100387.91
2019-06-01T12:34:14.801Z,100390.34
2019-06-01T12:36:42.752Z,100384.52
2019-06-01T12:39:12.841Z,100383.17
2019-06-01T12:41:45.516Z,100384.34
2019-06-01T12:44:15.844Z,100377.99
2019-06-01T12:46:46.970Z,100377.20
2019-06-01T12:49:14.945Z,100380.24
2019-06-01T12:51:42.747Z,100367.75
2019-06-01T12:54:10.865Z,100373.86
2019-06-01T12:56:38.658Z,100367.77
2019-06-01T12:59:22.720Z,100362.70
2019-06-01T13:01:51.375Z,100364.95
2019-06-01T13:04:19.152Z,100349.41
2019-06-01T13:06:51.108Z,100359.69
2019-06-01T13:09:21.056Z,100352.77
2019-06-01T13:11:54.626Z,100348.61
2019-06-01T13:14:25.120Z,100351.67
2019-06-01T13:17:06.319Z,100345.80
2019-06-01T13:19:22.740Z,100344.14
2019-06-01T13:21:51.679Z,100343.02
2019-06-01T13:24:19.544Z,100344.95
2019-06-01T13:26:47.854Z,100338.32
2019-06-01T13:29:15.751Z,100340.59
2019-06-01T13:31:44.333Z,100336.69
2019-06-01T13:34:15.435Z,100333.04
2019-06-01T13:36:46.449Z,100324.91
2019-06-01T13:39:17.388Z,100324.81
2019-06-01T13:41:47.033Z,100322.47
2019-06-01T13:44:14.930Z,100328.46
2019-06-01T13:46:43.454Z,100325.25
2019-06-01T13:49:14.464Z,100321.75
2019-06-01T13:51:44.023Z,100315.13
2019-06-01T13:54:11.849Z,100318.22
2019-06-01T13:56:46.758Z,100321.87
2019-06-01T13:59:16.037Z,100317.19
2019-06-01T14:01:45.085Z,100308.03
2019-06-01T14:04:13.327Z,100307.28
2019-06-01T14:06:43.225Z,100298.45
2019-06-01T14:09:13.739Z,100301.58
2019-06-01T14:11:43.419Z,100292.03
2019-06-01T14:14:13.885Z,100292.56
2019-06-01T14:16:45.362Z,100289.64
2019-06-01T14:19:13.761Z,100286.72
2019-06-01T14:21:41.482Z,100295.79
2019-06-01T14:24:09.279Z,100290.27
2019-06-01T14:26:37.429Z,100296.11
2019-06-01T14:29:07.475Z,100297.04
2019-06-01T14:31:35.206Z,100293.22
2019-06-01T14:34:07.370Z,100287.63
2019-06-01T14:36:40.869Z,100291.86
2019-06-01T14:39:08.548Z,100279.00
2019-06-01T14:41:42.816Z,100279.81
2019-06-01T14:44:10.542Z,100277.02
2019-06-01T14:46:53.653Z,100274.96
2019-06-01T14:49:11.238Z,100270.06
2019-06-01T14:51:40.128Z,100272.20
2019-06-01T14:54:07.838Z,100274.60
2019-06-01T14:56:36.108Z,100275.67
2019-06-01T14:59:08.698Z,100277.51
2019-06-01T15:01:39.078Z,100269.17
2019-06-01T15:04:10.197Z,100270.66
2019-06-01T15:06:45.188Z,100265.51
2019-06-01T15:09:23.221Z,100266.26
2019-06-01T15:11:42.720Z,100263.37
2019-06-01T15:14:10.431Z,100262.36
2019-06-01T15:16:41.807Z,100253.64
2019-06-01T15:19:12.834Z,100253.64
2019-06-01T15:21:40.706Z,100254.16
2019-06-01T15:24:11.255Z,100256.89
2019-06-01T15:26:39.336Z,100252.37
2019-06-01T15:29:07.313Z,100255.06
2019-06-01T15:31:36.486Z,100246.85
2019-06-01T15:34:08.080Z,100248.81
2019-06-01T15:36:35.561Z,100249.58
2019-06-01T15:39:03.305Z,100252.76
2019-06-01T15:41:33.026Z,100239.84
2019-06-01T15:44:02.386Z,100244.70
2019-06-01T15:46:31.957Z,100244.70
2019-06-01T15:49:05.873Z,100234.30
2019-06-01T15:51:36.315Z,100238.73
2019-06-01T15:54:04.045Z,100231.48
2019-06-01T15:56:32.152Z,100233.72
2019-06-01T15:59:02.884Z,100232.72
2019-06-01T16:01:33.145Z,100229.94
2019-06-01T16:04:01.413Z,100225.23
2019-06-01T16:06:32.263Z,100225.53
2019-06-01T16:08:59.967Z,100220.75
2019-06-01T16:11:28.241Z,100224.73
2019-06-01T16:13:59.622Z,100220.20
2019-06-01T16:16:28.012Z,100219.52
2019-06-01T16:19:04.864Z,100224.01
2019-06-01T16:21:45.114Z,100212.68
2019-06-01T16:24:00.486Z,100215.47
2019-06-01T16:26:28.764Z,100221.91
2019-06-01T16:28:58.472Z,100208.05
2019-06-01T16:31:27.848Z,100219.67
2019-06-01T16:33:56.577Z,100214.80
2019-06-01T16:36:24.765Z,100222.97
2019-06-01T16:38:52.498Z,100219.52
2019-06-01T16:41:20.651Z,100219.74
2019-06-01T16:43:52.643Z,100221.56
2019-06-01T16:46:39.179Z,100217.66
2019-06-01T16:49:09.234Z,100215.52
2019-06-01T16:51:36.956Z,100218.02
2019-06-01T16:54:06.723Z,100216.17
2019-06-01T16:56:34.426Z,100214.34
2019-06-01T16:59:02.369Z,100216.97
2019-06-01T17:01:34.368Z,100201.55
2019-06-01T17:04:06.688Z,100204.31
2019-06-01T17:06:34.683Z,100204.31
2019-06-01T17:09:03.769Z,100211.28
2019-06-01T17:11:32.122Z,100206.92
2019-06-01T17:14:00.787Z,100205.28
2019-06-01T17:16:33.207Z,100199.97
2019-06-01T17:19:01.325Z,100207.64
2019-06-01T17:21:29.396Z,100197.80
2019-06-01T17:23:57.436Z,100195.40
2019-06-01T17:26:25.230Z,100199.41
2019-06-01T17:28:53.497Z,100210.25
2019-06-01T17:31:21.216Z,100201.69
2019-06-01T17:33:52.014Z,100206.31
2019-06-01T17:36:20.176Z,100204.88
2019-06-01T17:38:47.944Z,100201.56
2019-06-01T17:41:15.706Z,100199.62
2019-06-01T17:43:43.911Z,100201.55
2019-06-01T17:46:12.067Z,100198.78
2019-06-01T17:48:42.842Z,100199.34
2019-06-01T17:51:13.482Z,100200.77
2019-06-01T17:53:41.269Z,100198.69
2019-06-01T17:56:12.182Z,100199.25
2019-06-01T17:58:41.875Z,100194.31
2019-06-01T18:01:09.973Z,100198.11
2019-06-01T18:03:37.805Z,100200.13
2019-06-01T18:06:06.016Z,100194.09
2019-06-01T18:08:33.725Z,100192.44
2019-06-01T18:11:01.988Z,100189.43
2019-06-01T18:13:31.718Z,100192.16
2019-06-01T18:15:59.486Z,100192.09
2019-06-01T18:18:27.205Z,100190.77
2019-06-01T18:20:56.603Z,100188.84
2019-06-01T18:23:27.211Z,100191.60
2019-06-01T18:25:54.946Z,100188.77
2019-06-01T18:28:23.247Z,100185.33
2019-06-01T18:30:51.029Z,100186.30
2019-06-01T18:33:19.204Z,100181.27
2019-06-01T18:35:48.889Z,100186.36
2019-06-01T18:38:16.686Z,100186.36
2019-06-01T18:40:51.472Z,100178.91
2019-06-01T18:43:19.596Z,100177.95
2019-06-01T18:45:50.332Z,100182.62
2019-06-01T18:48:18.409Z,100184.33
2019-06-01T18:50:46.694Z,100184.50
2019-06-01T18:53:16.078Z,100185.80
2019-06-01T18:55:43.814Z,100182.70
2019-06-01T18:58:12.557Z,100185.88
2019-06-01T19:00:40.390Z,100182.27
2019-06-01T19:03:09.022Z,100182.27
2019-06-01T19:05:37.362Z,100178.72
2019-06-01T19:08:05.570Z,100175.08
2019-06-01T19:10:42.554Z,100178.67
2019-06-01T19:13:11.713Z,100179.02
2019-06-01T19:15:41.203Z,100182.56
2019-06-01T19:18:10.340Z,100181.31
2019-06-01T19:20:40.898Z,100180.00
2019-06-01T19:23:08.791Z,100188.96
2019-06-01T19:25:38.155Z,100184.95
2019-06-01T19:28:08.855Z,100184.95
2019-06-01T19:30:49.231Z,100186.51
2019-06-01T19:33:14.197Z,100186.51
2019-06-01T19:35:40.668Z,100188.34
2019-06-01T19:38:09.108Z,100191.16
2019-06-01T19:40:38.369Z,100189.59
2019-06-01T19:43:09.412Z,100187.70
2019-06-01T19:45:47.355Z,100190.30
2019-06-01T19:48:16.516Z,100196.03
2019-06-01T19:50:44.539Z,100191.38
2019-06-01T19:53:14.809Z,100191.77
2019-06-01T19:55:42.714Z,100194.39
2019-06-01T19:58:11.961Z,100190.97
2019-06-01T20:00:40.227Z,100190.97
2019-06-01T20:03:08.034Z,100193.91
2019-06-01T20:05:35.773Z,100198.70
2019-06-01T20:08:06.581Z,100200.70
2019-06-01T20:10:34.356Z,100200.70
2019-06-01T20:13:05.144Z,100207.22
2019-06-01T20:15:37.387Z,100200.33
2019-06-01T20:18:25.542Z,100198.72
2019-06-01T20:20:56.461Z,100198.72
2019-06-01T20:23:24.243Z,100201.68
2019-06-01T20:25:53.321Z,100197.14
2019-06-01T20:28:21.762Z,100193.13
2019-06-01T20:30:49.574Z,100193.67
2019-06-01T20:33:18.302Z,100191.47
2019-06-01T20:35:48.152Z,100189.99
2019-06-01T20:38:16.605Z,100189.67
2019-06-01T20:40:48.314Z,100189.67
2019-06-01T20:43:20.835Z,100192.91
2019-06-01T20:45:49.716Z,100187.26
2019-06-01T20:48:18.826Z,100187.26
2019-06-01T20:50:46.862Z,100188.45
2019-06-01T20:53:14.908Z,100182.05
2019-06-01T20:55:43.196Z,100182.05
2019-06-01T20:58:11.005Z,100181.06
2019-06-01T21:00:38.845Z,100183.80
2019-06-01T21:03:17.714Z,100184.33
2019-06-01T21:05:37.757Z,100178.62
2019-06-01T21:08:06.344Z,100181.50
2019-06-01T21:10:34.568Z,100193.03
2019-06-01T21:13:07.780Z,100190.47
2019-06-01T21:15:35.775Z,100190.47
2019-06-01T21:18:05.440Z,100186.27
2019-06-01T21:20:36.036Z,100189.83
2019-06-01T21:23:06.989Z,100193.70
2019-06-01T21:25:34.766Z,100186.60
2019-06-01T21:28:02.569Z,100183.40
2019-06-01T21:30:30.771Z,100182.21
2019-06-01T21:33:00.221Z,100182.21
2019-06-01T21:35:30.547Z,100187.78
2019-06-01T21:37:58.612Z,100183.91
2019-06-01T21:40:32.375Z,100187.59
2019-06-01T21:43:07.312Z,100181.88
2019-06-01T21:45:30.045Z,100189.13
2019-06-01T21:47:57.851Z,100183.71
2019-06-01T21:50:27.242Z,100185.08
2019-06-01T21:52:55.507Z,100185.39
2019-06-01T21:55:24.463Z,100188.08
2019-06-01T21:57:52.677Z,100185.05
2019-06-01T22:00:22.628Z,100178.81
2019-06-01T22:02:50.399Z,100178.81
2019-06-01T22:05:18.665Z,100181.81
2019-06-01T22:07:48.618Z,100183.48
2019-06-01T22:10:17.075Z,100170.84
2019-06-01T22:12:47.479Z,100172.16
2019-06-01T22:15:19.441Z,100172.16
2019-06-01T22:17:51.514Z,100169.10
2019-06-01T22:20:28.624Z,100170.11
2019-06-01T22:22:59.351Z,100161.85
2019-06-01T22:25:31.431Z,100161.85
2019-06-01T22:27:56.739Z,100157.62
2019-06-01T22:30:24.825Z,100153.92
2019-06-01T22:32:55.233Z,100153.41
2019-06-01T22:35:24.649Z,100157.61
2019-06-01T22:37:52.483Z,100150.69
2019-06-01T22:40:20.875Z,100150.02
2019-06-01T22:42:51.639Z,100150.17
2019-06-01T22:45:22.458Z,100149.49
2019-06-01T22:47:50.263Z,100149.49
2019-06-01T22:50:18.303Z,100138.38
2019-06-01T22:52:46.418Z,100139.58
2019-06-01T22:55:14.605Z,100138.72
2019-06-01T22:57:43.360Z,100141.41
2019-06-01T23:00:15.889Z,100136.17
2019-06-01T23:02:47.004Z,100140.22
2019-06-01T23:05:14.810Z,100137.52
2019-06-01T23:07:44.426Z,100137.70
2019-06-01T23:10:12.644Z,100127.08
2019-06-01T23:12:40.413Z,100130.45
2019-06-01T23:15:08.434Z,100125.55
2019-06-01T23:17:38.150Z,100132.11
2019-06-01T23:20:06.012Z,100130.91
2019-06-01T23:22:33.890Z,100124.03
2019-06-01T23:25:02.154Z,100130.58
2019-06-01T23:27:31.091Z,100120.11
2019-06-01T23:29:59.231Z,100123.62
2019-06-01T23:32:28.497Z,100123.11
2019-06-01T23:35:06.146Z,100117.88
2019-06-01T23:37:36.830Z,100123.59
2019-06-01T23:40:04.728Z,100114.66
2019-06-01T23:42:32.933Z,100114.81
2019-06-01T23:45:01.283Z,100108.72
2019-06-01T23:47:29.390Z,100104.16
2019-06-01T23:49:58.443Z,100098.18
2019-06-01T23:52:27.437Z,100098.18
2019-06-01T23:54:57.708Z,100101.70
2019-06-01T23:57:25.744Z,100094.28
2019-06-01T23:59:53.520Z,100100.48
